createdAt,value
2018-02-24T00:00:49.002Z,45.31
2018-02-24T00:03:17.389Z,44.84
2018-02-24T00:05:45.854Z,45.08
2018-02-24T00:08:14.354Z,45.14
2018-02-24T00:10:42.752Z,43.09
2018-02-24T00:13:11.225Z,42.94
2018-02-24T00:15:39.627Z,42.64
2018-02-24T00:18:08.035Z,43.18
2018-02-24T00:20:36.472Z,43.04
2018-02-24T00:23:04.866Z,45.47
2018-02-24T00:25:33.374Z,44.78
2018-02-24T00:28:01.800Z,42.75
2018-02-24T00:30:30.228Z,44.57
2018-02-24T00:32:58.625Z,44.90
2018-02-24T00:35:27.026Z,44.83
2018-02-24T00:37:55.562Z,44.68
2018-02-24T00:40:23.975Z,42.94
2018-02-24T00:42:52.441Z,43.78
2018-02-24T00:45:20.881Z,45.09
2018-02-24T00:47:49.299Z,45.58
2018-02-24T00:50:17.822Z,45.98
2018-02-24T00:52:46.331Z,46.97
2018-02-24T00:55:15.072Z,45.71
2018-02-24T00:57:43.472Z,45.05
2018-02-24T01:00:11.958Z,45.59
2018-02-24T01:02:40.373Z,45.55
2018-02-24T01:05:08.795Z,46.11
2018-02-24T01:07:37.346Z,45.48
2018-02-24T01:10:05.744Z,46.40
2018-02-24T01:12:34.153Z,46.98
2018-02-24T01:15:02.640Z,45.59
2018-02-24T01:17:31.048Z,46.17
2018-02-24T01:19:59.702Z,46.00
2018-02-24T01:22:28.105Z,44.95
2018-02-24T01:24:56.608Z,45.26
2018-02-24T01:27:25.019Z,45.39
2018-02-24T01:29:53.470Z,45.02
2018-02-24T01:32:21.945Z,45.59
2018-02-24T01:34:50.351Z,44.17
2018-02-24T01:37:18.821Z,46.31
2018-02-24T01:39:47.290Z,46.60
2018-02-24T01:42:15.737Z,44.97
2018-02-24T01:44:44.140Z,47.40
2018-02-24T01:47:12.650Z,45.54
2018-02-24T01:49:41.083Z,45.36
2018-02-24T01:52:09.451Z,44.75
2018-02-24T01:54:38.081Z,43.37
2018-02-24T01:57:06.502Z,44.04
2018-02-24T01:59:34.950Z,44.97
2018-02-24T02:02:03.328Z,43.92
2018-02-24T02:04:31.908Z,42.58
2018-02-24T02:07:00.396Z,43.91
2018-02-24T02:09:28.783Z,43.67
2018-02-24T02:11:57.202Z,44.70
2018-02-24T02:14:25.569Z,44.60
2018-02-24T02:16:54.205Z,43.84
2018-02-24T02:19:22.711Z,45.03
2018-02-24T02:21:51.139Z,44.99
2018-02-24T02:24:19.631Z,43.53
2018-02-24T02:26:48.091Z,44.31
2018-02-24T02:29:16.536Z,44.74
2018-02-24T02:31:44.958Z,44.09
2018-02-24T02:34:13.363Z,42.74
2018-02-24T02:36:41.867Z,42.43
2018-02-24T02:39:10.401Z,43.73
2018-02-24T02:41:38.919Z,42.75
2018-02-24T02:44:07.288Z,42.84
2018-02-24T02:46:35.706Z,43.69
2018-02-24T02:49:04.088Z,41.74
2018-02-24T02:51:32.556Z,41.30
2018-02-24T02:54:00.998Z,41.59
2018-02-24T02:56:29.386Z,41.46
2018-02-24T02:58:57.884Z,43.88
2018-02-24T03:01:26.387Z,43.53
2018-02-24T03:03:54.860Z,43.16
2018-02-24T03:06:23.260Z,41.78
2018-02-24T03:08:51.674Z,43.39
2018-02-24T03:11:20.050Z,43.07
2018-02-24T03:13:48.672Z,42.95
2018-02-24T03:16:17.224Z,41.65
2018-02-24T03:18:45.632Z,40.87
2018-02-24T03:21:14.076Z,41.88
2018-02-24T03:23:43.426Z,41.83
2018-02-24T03:26:11.986Z,41.56
2018-02-24T03:28:40.445Z,42.68
2018-02-24T03:31:08.858Z,42.69
2018-02-24T03:33:37.276Z,43.42
2018-02-24T03:36:05.658Z,41.66
2018-02-24T03:38:34.064Z,43.45
2018-02-24T03:41:02.546Z,42.71
2018-02-24T03:43:30.942Z,44.57
2018-02-24T03:46:00.278Z,45.58
2018-02-24T03:48:28.662Z,43.07
2018-02-24T03:50:57.143Z,43.69
2018-02-24T03:53:25.554Z,45.11
2018-02-24T03:55:54.296Z,45.86
2018-02-24T03:58:22.740Z,46.87
2018-02-24T04:00:51.207Z,45.74
2018-02-24T04:03:19.600Z,46.80
2018-02-24T04:05:48.036Z,45.12
2018-02-24T04:08:16.428Z,46.86
2018-02-24T04:10:44.838Z,46.47
2018-02-24T04:13:13.316Z,45.32
2018-02-24T04:15:41.700Z,45.16
2018-02-24T04:18:10.196Z,44.98
2018-02-24T04:20:38.593Z,45.23
2018-02-24T04:23:07.134Z,47.73
2018-02-24T04:25:35.573Z,47.07
2018-02-24T04:28:03.946Z,49.01
2018-02-24T04:30:32.360Z,44.43
2018-02-24T04:33:00.767Z,46.83
2018-02-24T04:35:29.332Z,47.49
2018-02-24T04:37:57.764Z,47.21
2018-02-24T04:40:26.267Z,48.60
2018-02-24T04:42:54.653Z,47.01
2018-02-24T04:45:23.147Z,48.29
2018-02-24T04:47:51.608Z,47.87
2018-02-24T04:50:20.006Z,47.02
2018-02-24T04:52:48.431Z,47.44
2018-02-24T04:55:16.993Z,46.85
2018-02-24T04:57:45.393Z,45.80
2018-02-24T05:00:13.868Z,44.38
2018-02-24T05:02:42.288Z,44.14
2018-02-24T05:05:10.682Z,45.32
2018-02-24T05:07:39.124Z,43.79
2018-02-24T05:10:07.526Z,44.17
2018-02-24T05:12:36.998Z,43.04
2018-02-24T05:15:05.643Z,42.94
2018-02-24T05:17:34.058Z,43.35
2018-02-24T05:20:02.457Z,43.59
2018-02-24T05:22:31.012Z,42.82
2018-02-24T05:24:59.421Z,42.81
2018-02-24T05:27:27.826Z,42.33
2018-02-24T05:29:56.219Z,42.13
2018-02-24T05:32:24.633Z,40.34
2018-02-24T05:34:53.094Z,40.43
2018-02-24T05:37:21.501Z,39.61
2018-02-24T05:39:49.915Z,39.39
2018-02-24T05:42:18.321Z,40.60
2018-02-24T05:44:46.723Z,42.10
2018-02-24T05:47:15.500Z,41.34
2018-02-24T05:49:43.898Z,40.09
2018-02-24T05:52:12.314Z,42.40
2018-02-24T05:54:40.716Z,42.75
2018-02-24T05:57:09.160Z,42.38
2018-02-24T05:59:37.655Z,43.11
2018-02-24T06:02:06.046Z,42.84
2018-02-24T06:04:34.428Z,42.06
2018-02-24T06:07:02.807Z,43.33
2018-02-24T06:09:31.337Z,43.09
2018-02-24T06:11:59.838Z,43.51
2018-02-24T06:14:28.345Z,43.53
2018-02-24T06:16:56.760Z,42.21
2018-02-24T06:19:25.178Z,43.61
2018-02-24T06:21:53.664Z,44.25
2018-02-24T06:24:22.068Z,44.82
2018-02-24T06:26:50.629Z,44.19
2018-02-24T06:29:19.049Z,44.77
2018-02-24T06:31:47.515Z,43.60
2018-02-24T06:34:15.938Z,43.62
2018-02-24T06:36:44.315Z,43.57
2018-02-24T06:39:12.713Z,44.94
2018-02-24T06:41:41.190Z,43.67
2018-02-24T06:44:09.777Z,43.09
2018-02-24T06:46:38.175Z,43.56
2018-02-24T06:49:06.730Z,44.49
2018-02-24T06:51:35.157Z,44.06
2018-02-24T06:54:03.557Z,43.36
2018-02-24T06:56:31.950Z,42.29
2018-02-24T06:59:00.355Z,41.77
2018-02-24T07:01:28.841Z,42.54
2018-02-24T07:03:57.239Z,42.11
2018-02-24T07:06:25.645Z,40.79
2018-02-24T07:08:54.052Z,42.16
2018-02-24T07:11:22.528Z,41.60
2018-02-24T07:13:50.975Z,41.48
2018-02-24T07:16:19.682Z,40.79
2018-02-24T07:18:48.120Z,40.06
2018-02-24T07:21:16.506Z,41.79
2018-02-24T07:23:44.998Z,40.83
2018-02-24T07:26:13.412Z,41.19
2018-02-24T07:28:41.835Z,39.94
2018-02-24T07:31:13.861Z,40.82
2018-02-24T07:33:42.263Z,39.00
2018-02-24T07:36:10.675Z,39.56
2018-02-24T07:38:39.052Z,40.43
2018-02-24T07:41:07.442Z,40.49
2018-02-24T07:43:35.944Z,40.10
2018-02-24T07:46:04.375Z,40.38
2018-02-24T07:48:32.838Z,39.69
2018-02-24T07:51:01.289Z,39.24
2018-02-24T07:53:29.706Z,40.21
2018-02-24T07:55:58.503Z,39.72
2018-02-24T07:58:27.006Z,41.00
2018-02-24T08:00:55.438Z,38.25
2018-02-24T08:03:23.902Z,39.95
2018-02-24T08:05:52.393Z,39.23
2018-02-24T08:08:20.963Z,39.35
2018-02-24T08:10:49.398Z,37.39
2018-02-24T08:13:17.831Z,37.32
2018-02-24T08:15:46.271Z,37.23
2018-02-24T08:18:14.667Z,38.52
2018-02-24T08:20:43.158Z,35.50
2018-02-24T08:23:11.569Z,37.25
2018-02-24T08:25:39.983Z,36.87
2018-02-24T08:28:08.388Z,36.29
2018-02-24T08:30:36.787Z,37.38
2018-02-24T08:33:05.271Z,36.71
2018-02-24T08:35:33.663Z,39.26
2018-02-24T08:38:02.089Z,37.51
2018-02-24T08:40:30.485Z,38.07
2018-02-24T08:42:58.918Z,37.26
2018-02-24T08:45:27.387Z,39.45
2018-02-24T08:47:55.787Z,38.07
2018-02-24T08:50:24.254Z,37.22
2018-02-24T08:52:52.748Z,37.48
2018-02-24T08:55:21.163Z,37.13
2018-02-24T08:57:49.636Z,35.36
2018-02-24T09:00:18.029Z,33.17
2018-02-24T09:02:46.441Z,32.46
2018-02-24T09:05:14.845Z,31.05
2018-02-24T09:07:43.272Z,30.87
2018-02-24T09:10:11.720Z,30.59
2018-02-24T09:12:40.104Z,30.85
2018-02-24T09:15:08.607Z,30.32
2018-02-24T09:17:37.070Z,30.79
2018-02-24T09:20:05.511Z,30.57
2018-02-24T09:22:33.918Z,31.86
2018-02-24T09:25:02.519Z,32.10
2018-02-24T09:27:31.271Z,31.55
2018-02-24T09:29:59.924Z,33.54
2018-02-24T09:32:28.471Z,33.12
2018-02-24T09:34:56.840Z,34.31
2018-02-24T09:37:25.252Z,34.00
2018-02-24T09:39:54.100Z,35.13
2018-02-24T09:42:22.512Z,33.80
2018-02-24T09:44:50.904Z,35.21
2018-02-24T09:47:19.287Z,38.17
2018-02-24T09:49:47.679Z,37.81
2018-02-24T09:52:16.149Z,38.28
2018-02-24T09:54:44.548Z,37.01
2018-02-24T09:57:12.947Z,39.33
2018-02-24T09:59:41.358Z,40.00
2018-02-24T10:02:09.831Z,38.59
2018-02-24T10:04:38.312Z,40.10
2018-02-24T10:07:06.709Z,38.40
2018-02-24T10:09:35.113Z,38.11
2018-02-24T10:12:03.516Z,40.32
2018-02-24T10:14:32.006Z,42.90
2018-02-24T10:17:00.488Z,44.94
2018-02-24T10:19:28.889Z,43.15
2018-02-24T10:21:57.458Z,43.97
2018-02-24T10:24:25.848Z,45.03
2018-02-24T10:26:54.244Z,43.92
2018-02-24T10:29:22.712Z,45.73
2018-02-24T10:31:51.118Z,45.75
2018-02-24T10:34:19.492Z,44.95
2018-02-24T10:36:47.892Z,46.35
2018-02-24T10:39:16.287Z,45.66
2018-02-24T10:41:44.780Z,45.27
2018-02-24T10:44:13.210Z,46.00
2018-02-24T10:46:41.660Z,45.57
2018-02-24T10:49:14.838Z,45.07
2018-02-24T10:51:43.312Z,45.90
2018-02-24T10:54:11.735Z,45.46
2018-02-24T10:56:40.132Z,45.07
2018-02-24T10:59:08.692Z,46.28
2018-02-24T11:01:37.180Z,47.74
2018-02-24T11:04:05.608Z,45.70
2018-02-24T11:06:34.020Z,45.58
2018-02-24T11:09:02.485Z,45.93
2018-02-24T11:11:30.949Z,48.15
2018-02-24T11:13:59.372Z,46.48
2018-02-24T11:16:27.850Z,46.28
2018-02-24T11:18:56.259Z,47.31
2018-02-24T11:21:24.662Z,48.25
2018-02-24T11:23:53.205Z,46.87
2018-02-24T11:26:21.608Z,48.10
2018-02-24T11:28:50.002Z,46.70
2018-02-24T11:31:18.540Z,46.21
2018-02-24T11:33:46.899Z,48.06
2018-02-24T11:36:15.469Z,45.27
2018-02-24T11:38:43.875Z,45.85
2018-02-24T11:41:12.267Z,45.83
2018-02-24T11:43:40.669Z,46.13
2018-02-24T11:46:09.151Z,46.21
2018-02-24T11:48:37.623Z,48.27
2018-02-24T11:51:06.038Z,47.27
2018-02-24T11:53:34.532Z,47.00
2018-02-24T11:56:03.002Z,46.03
2018-02-24T11:58:31.474Z,49.75
2018-02-24T12:00:59.985Z,47.25
2018-02-24T12:03:28.388Z,49.23
2018-02-24T12:05:56.942Z,49.86
2018-02-24T12:08:25.328Z,46.07
2018-02-24T12:10:53.694Z,50.31
2018-02-24T12:13:22.114Z,48.66
2018-02-24T12:15:50.561Z,49.46
2018-02-24T12:18:18.999Z,48.83
2018-02-24T12:20:47.416Z,46.59
2018-02-24T12:23:15.833Z,47.67
2018-02-24T12:25:44.236Z,48.03
2018-02-24T12:28:12.648Z,45.18
2018-02-24T12:30:41.114Z,47.47
2018-02-24T12:33:09.491Z,47.04
2018-02-24T12:35:38.936Z,48.64
2018-02-24T12:38:07.335Z,48.74
2018-02-24T12:40:35.811Z,50.16
2018-02-24T12:43:04.183Z,48.40
2018-02-24T12:45:32.690Z,48.84
2018-02-24T12:48:01.063Z,49.44
2018-02-24T12:50:29.441Z,48.17
2018-02-24T12:52:57.876Z,47.05
2018-02-24T12:55:26.293Z,44.70
2018-02-24T12:57:54.798Z,46.14
2018-02-24T13:00:23.201Z,45.57
2018-02-24T13:02:51.696Z,46.45
2018-02-24T13:05:20.084Z,45.90
2018-02-24T13:07:48.472Z,47.42
2018-02-24T13:10:17.269Z,46.24
2018-02-24T13:12:45.665Z,43.73
2018-02-24T13:15:14.075Z,46.12
2018-02-24T13:17:42.481Z,47.03
2018-02-24T13:20:10.870Z,44.19
2018-02-24T13:22:39.342Z,45.13
2018-02-24T13:25:07.804Z,45.25
2018-02-24T13:27:36.239Z,44.06
2018-02-24T13:30:04.623Z,45.02
2018-02-24T13:32:33.032Z,44.10
2018-02-24T13:35:01.495Z,44.35
2018-02-24T13:37:29.916Z,42.99
2018-02-24T13:39:58.305Z,44.59
2018-02-24T13:42:26.702Z,43.28
2018-02-24T13:44:55.120Z,43.78
2018-02-24T13:47:23.618Z,42.08
2018-02-24T13:49:52.124Z,43.19
2018-02-24T13:52:20.524Z,43.60
2018-02-24T13:54:48.910Z,44.88
2018-02-24T13:57:17.411Z,43.96
2018-02-24T13:59:45.926Z,42.03
2018-02-24T14:02:14.459Z,41.45
2018-02-24T14:04:42.835Z,39.85
2018-02-24T14:07:11.218Z,39.20
2018-02-24T14:09:39.659Z,42.63
2018-02-24T14:12:08.208Z,41.47
2018-02-24T14:14:36.618Z,43.30
2018-02-24T14:17:05.014Z,41.33
2018-02-24T14:19:33.411Z,40.35
2018-02-24T14:22:01.804Z,39.31
2018-02-24T14:24:30.420Z,41.74
2018-02-24T14:26:58.818Z,40.96
2018-02-24T14:29:27.223Z,39.74
2018-02-24T14:31:55.790Z,39.88
2018-02-24T14:34:24.279Z,40.05
2018-02-24T14:36:52.722Z,39.99
2018-02-24T14:39:21.246Z,40.70
2018-02-24T14:41:49.643Z,40.00
2018-02-24T14:44:18.129Z,39.81
2018-02-24T14:46:46.552Z,40.12
2018-02-24T14:49:15.005Z,40.48
2018-02-24T14:51:43.549Z,41.01
2018-02-24T14:54:12.906Z,40.87
2018-02-24T14:56:41.324Z,39.50
2018-02-24T14:59:09.725Z,40.84
2018-02-24T15:01:38.313Z,40.44
2018-02-24T15:04:06.764Z,41.06
2018-02-24T15:06:35.175Z,41.12
2018-02-24T15:09:03.694Z,40.48
2018-02-24T15:11:32.145Z,38.77
2018-02-24T15:14:00.571Z,39.89
2018-02-24T15:16:28.932Z,40.75
2018-02-24T15:18:57.417Z,41.41
2018-02-24T15:21:25.873Z,40.46
2018-02-24T15:23:54.343Z,41.23
2018-02-24T15:26:22.754Z,42.86
2018-02-24T15:28:51.382Z,41.97
2018-02-24T15:31:19.878Z,42.96
2018-02-24T15:36:22.951Z,41.22
2018-02-24T15:38:51.372Z,41.23
2018-02-24T15:41:19.779Z,40.34
2018-02-24T15:43:48.195Z,38.85
2018-02-24T15:46:16.606Z,38.60
2018-02-24T15:48:45.081Z,39.81
2018-02-24T15:51:13.468Z,39.69
2018-02-24T15:53:41.891Z,40.06
2018-02-24T15:56:10.386Z,39.68
2018-02-24T15:58:38.908Z,39.51
2018-02-24T16:01:07.285Z,39.00
2018-02-24T16:03:35.706Z,38.71
2018-02-24T16:06:04.116Z,38.36
2018-02-24T16:08:32.513Z,37.81
2018-02-24T16:11:01.158Z,39.19
2018-02-24T16:13:29.531Z,40.19
2018-02-24T16:15:57.889Z,39.01
2018-02-24T16:18:26.297Z,40.37
2018-02-24T16:20:54.699Z,40.53
2018-02-24T16:23:23.333Z,40.35
2018-02-24T16:25:51.754Z,40.34
2018-02-24T16:28:20.251Z,38.99
2018-02-24T16:30:48.760Z,39.28
2018-02-24T16:33:17.146Z,38.51
2018-02-24T16:35:45.761Z,39.19
2018-02-24T16:38:14.141Z,39.25
2018-02-24T16:40:42.707Z,38.81
2018-02-24T16:43:11.200Z,36.98
2018-02-24T16:45:39.616Z,37.47
2018-02-24T16:48:08.020Z,36.96
2018-02-24T16:50:36.421Z,37.15
2018-02-24T16:53:05.000Z,37.06
2018-02-24T16:55:33.430Z,38.52
2018-02-24T16:58:01.833Z,37.15
2018-02-24T17:00:30.205Z,36.71
2018-02-24T17:02:58.679Z,37.06
2018-02-24T17:05:27.224Z,39.40
2018-02-24T17:07:55.708Z,37.30
2018-02-24T17:10:24.097Z,36.71
2018-02-24T17:12:52.508Z,36.28
2018-02-24T17:15:20.928Z,37.92
2018-02-24T17:17:49.470Z,35.94
2018-02-24T17:20:17.834Z,36.47
2018-02-24T17:22:46.320Z,37.84
2018-02-24T17:25:14.780Z,39.22
2018-02-24T17:27:43.167Z,38.96
2018-02-24T17:30:12.087Z,39.02
2018-02-24T17:32:40.700Z,38.74
2018-02-24T17:35:09.394Z,38.46
2018-02-24T17:37:37.947Z,38.22
2018-02-24T17:40:06.731Z,39.78
2018-02-24T17:42:35.331Z,38.67
2018-02-24T17:45:03.921Z,37.49
2018-02-24T17:47:32.456Z,37.68
2018-02-24T17:50:01.078Z,37.51
2018-02-24T17:52:29.626Z,39.54
2018-02-24T17:54:58.297Z,38.17
2018-02-24T17:57:26.913Z,40.46
2018-02-24T17:59:55.503Z,38.69
2018-02-24T18:02:24.355Z,39.20
2018-02-24T18:04:53.203Z,39.46
2018-02-24T18:07:21.906Z,38.92
2018-02-24T18:09:50.450Z,39.86
2018-02-24T18:12:19.090Z,39.41
2018-02-24T18:14:47.657Z,39.38
2018-02-24T18:17:16.300Z,39.51
2018-02-24T18:19:45.116Z,38.99
2018-02-24T18:22:13.681Z,40.58
2018-02-24T18:24:42.413Z,41.09
2018-02-24T18:27:11.008Z,40.90
2018-02-24T18:29:39.780Z,41.02
2018-02-24T18:32:08.630Z,38.97
2018-02-24T18:34:37.684Z,40.22
2018-02-24T18:37:06.425Z,39.36
2018-02-24T18:39:35.032Z,40.98
2018-02-24T18:42:03.716Z,40.55
2018-02-24T18:44:32.505Z,41.02
2018-02-24T18:47:01.388Z,41.97
2018-02-24T18:49:30.267Z,42.47
2018-02-24T18:51:59.064Z,42.53
2018-02-24T18:54:27.745Z,40.68
2018-02-24T18:56:56.136Z,39.38
2018-02-24T18:59:24.603Z,42.85
2018-02-24T19:01:53.073Z,41.94
2018-02-24T19:04:21.473Z,42.68
2018-02-24T19:06:49.949Z,41.44
2018-02-24T19:09:18.357Z,42.34
2018-02-24T19:11:46.764Z,42.34
2018-02-24T19:14:15.230Z,42.13
2018-02-24T19:16:43.705Z,42.01
2018-02-24T19:19:12.067Z,43.06
2018-02-24T19:21:40.473Z,41.18
2018-02-24T19:24:08.867Z,41.23
2018-02-24T19:26:37.384Z,41.28
2018-02-24T19:29:05.795Z,42.08
2018-02-24T19:31:34.187Z,42.55
2018-02-24T19:34:02.586Z,41.78
2018-02-24T19:36:31.003Z,41.79
2018-02-24T19:38:59.437Z,42.07
2018-02-24T19:41:27.917Z,41.46
2018-02-24T19:43:56.464Z,40.93
2018-02-24T19:46:24.819Z,41.76
2018-02-24T19:48:53.240Z,43.08
2018-02-24T19:51:21.631Z,42.08
2018-02-24T19:53:50.090Z,43.66
2018-02-24T19:56:18.613Z,42.42
2018-02-24T19:58:47.017Z,42.33
2018-02-24T20:01:15.433Z,42.83
2018-02-24T20:03:43.842Z,42.95
2018-02-24T20:06:12.244Z,44.38
2018-02-24T20:08:40.788Z,43.23
2018-02-24T20:11:09.848Z,42.68
2018-02-24T20:13:38.243Z,43.28
2018-02-24T20:16:06.654Z,43.92
2018-02-24T20:18:35.065Z,42.71
2018-02-24T20:21:03.663Z,43.46
2018-02-24T20:23:32.144Z,43.63
2018-02-24T20:26:00.559Z,42.76
2018-02-24T20:28:28.950Z,42.72
2018-02-24T20:30:57.328Z,43.77
2018-02-24T20:33:25.844Z,42.69
2018-02-24T20:35:54.231Z,40.89
2018-02-24T20:38:22.614Z,42.94
2018-02-24T20:40:50.998Z,42.47
2018-02-24T20:43:19.406Z,42.51
2018-02-24T20:45:47.860Z,43.18
2018-02-24T20:48:16.265Z,42.49
2018-02-24T20:50:44.680Z,42.62
2018-02-24T20:53:13.083Z,41.46
2018-02-24T20:55:41.468Z,42.20
2018-02-24T20:58:09.948Z,42.04
2018-02-24T21:00:38.335Z,41.15
2018-02-24T21:03:06.732Z,42.74
2018-02-24T21:05:35.210Z,42.16
2018-02-24T21:08:03.616Z,43.91
2018-02-24T21:10:32.085Z,43.62
2018-02-24T21:13:00.540Z,43.87
2018-02-24T21:15:28.934Z,42.58
2018-02-24T21:17:57.344Z,44.27
2018-02-24T21:20:25.729Z,42.63
2018-02-24T21:22:54.202Z,42.57
2018-02-24T21:25:22.676Z,40.44
2018-02-24T21:27:51.067Z,42.82
2018-02-24T21:30:19.492Z,41.51
2018-02-24T21:32:47.879Z,43.63
2018-02-24T21:35:16.415Z,42.85
2018-02-24T21:37:44.851Z,42.70
2018-02-24T21:40:13.326Z,43.58
2018-02-24T21:42:41.783Z,43.81
2018-02-24T21:45:10.196Z,43.00
2018-02-24T21:47:38.655Z,41.98
2018-02-24T21:50:07.083Z,43.08
2018-02-24T21:52:35.486Z,42.28
2018-02-24T21:55:03.899Z,43.40
2018-02-24T21:57:32.299Z,44.13
2018-02-24T22:00:00.864Z,41.80
2018-02-24T22:02:29.254Z,43.36
2018-02-24T22:04:57.646Z,43.84
2018-02-24T22:07:26.153Z,43.09
2018-02-24T22:09:54.527Z,44.79
2018-02-24T22:12:23.099Z,42.79
2018-02-24T22:14:51.477Z,44.03
2018-02-24T22:17:19.879Z,43.05
2018-02-24T22:19:48.349Z,42.42
2018-02-24T22:22:16.740Z,43.10
2018-02-24T22:24:45.207Z,44.49
2018-02-24T22:27:13.616Z,43.85
2018-02-24T22:29:42.010Z,43.51
2018-02-24T22:32:10.412Z,45.27
2018-02-24T22:34:38.800Z,44.60
2018-02-24T22:37:07.288Z,45.13
2018-02-24T22:39:35.688Z,46.44
2018-02-24T22:42:04.136Z,45.51
2018-02-24T22:44:32.496Z,43.63
2018-02-24T22:47:00.882Z,44.92
2018-02-24T22:49:29.284Z,47.32
2018-02-24T22:51:57.666Z,46.82
2018-02-24T22:54:26.174Z,46.37
2018-02-24T22:56:54.544Z,44.28
2018-02-24T22:59:23.022Z,44.92
2018-02-24T23:01:51.429Z,44.53
2018-02-24T23:04:19.795Z,47.35
2018-02-24T23:06:48.342Z,47.96
2018-02-24T23:09:16.731Z,47.46
2018-02-24T23:11:45.125Z,47.48
2018-02-24T23:14:13.535Z,49.16
2018-02-24T23:16:41.935Z,47.15
2018-02-24T23:19:10.471Z,47.28
2018-02-24T23:21:38.854Z,45.47
2018-02-24T23:24:07.258Z,46.49
2018-02-24T23:26:35.646Z,46.87
2018-02-24T23:29:04.009Z,48.36
2018-02-24T23:31:32.431Z,48.31
2018-02-24T23:34:00.917Z,46.87
2018-02-24T23:36:29.316Z,47.94
2018-02-24T23:38:57.723Z,46.84
2018-02-24T23:41:26.141Z,47.38
2018-02-24T23:43:54.559Z,48.41
2018-02-24T23:46:22.991Z,49.11
2018-02-24T23:48:51.402Z,47.68
2018-02-24T23:51:19.810Z,48.48
2018-02-24T23:53:48.240Z,49.93
2018-02-24T23:56:16.695Z,49.04
2018-02-24T23:58:45.058Z,49.95
